createdAt,value
2018-05-24T00:00:32.727Z,83.50
2018-05-24T00:03:04.486Z,83.40
2018-05-24T00:05:36.050Z,83.10
2018-05-24T00:08:07.133Z,83.10
2018-05-24T00:10:38.394Z,82.90
2018-05-24T00:13:11.177Z,83.00
2018-05-24T00:15:42.193Z,83.00
2018-05-24T00:18:13.405Z,82.80
2018-05-24T00:20:44.814Z,83.00
2018-05-24T00:23:15.629Z,82.80
2018-05-24T00:25:47.020Z,82.90
2018-05-24T00:28:18.693Z,83.50
2018-05-24T00:30:50.305Z,83.50
2018-05-24T00:33:21.866Z,83.80
2018-05-24T00:35:53.208Z,84.20
2018-05-24T00:38:24.479Z,84.30
2018-05-24T00:40:55.491Z,84.00
2018-05-24T00:43:26.582Z,84.40
2018-05-24T00:45:59.491Z,85.20
2018-05-24T00:48:30.694Z,85.30
2018-05-24T00:51:02.833Z,85.70
2018-05-24T00:53:34.350Z,85.90
2018-05-24T00:56:05.566Z,86.30
2018-05-24T00:58:36.825Z,85.50
2018-05-24T01:01:09.139Z,86.30
2018-05-24T01:03:40.698Z,85.90
2018-05-24T01:06:12.126Z,85.80
2018-05-24T01:08:43.858Z,86.20
2018-05-24T01:11:15.888Z,87.60
2018-05-24T01:13:46.614Z,87.30
2018-05-24T01:16:18.670Z,87.70
2018-05-24T01:18:49.644Z,87.60
2018-05-24T01:21:22.835Z,87.20
2018-05-24T01:23:53.693Z,87.50
2018-05-24T01:26:24.637Z,88.10
2018-05-24T01:28:56.299Z,87.80
2018-05-24T01:31:27.531Z,88.30
2018-05-24T01:33:58.780Z,88.40
2018-05-24T01:36:38.369Z,88.40
2018-05-24T01:39:09.249Z,88.10
2018-05-24T01:41:41.257Z,89.10
2018-05-24T01:44:12.634Z,89.40
2018-05-24T01:46:43.616Z,89.00
2018-05-24T01:49:14.812Z,89.70
2018-05-24T01:51:45.513Z,89.00
2018-05-24T01:54:17.128Z,89.70
2018-05-24T01:56:47.925Z,89.80
2018-05-24T01:59:19.899Z,89.20
2018-05-24T02:01:51.126Z,89.80
2018-05-24T02:04:22.726Z,89.60
2018-05-24T02:06:53.761Z,89.30
2018-05-24T02:09:24.816Z,89.80
2018-05-24T02:11:55.377Z,89.50
2018-05-24T02:14:26.556Z,89.90
2018-05-24T02:16:58.050Z,89.70
2018-05-24T02:19:28.810Z,90.10
2018-05-24T02:22:00.396Z,90.10
2018-05-24T02:24:32.250Z,90.00
2018-05-24T02:27:02.779Z,90.20
2018-05-24T02:29:33.671Z,90.30
2018-05-24T02:32:05.695Z,90.30
2018-05-24T02:34:36.952Z,90.30
2018-05-24T02:37:09.117Z,90.50
2018-05-24T02:39:42.255Z,90.50
2018-05-24T02:42:13.875Z,90.50
2018-05-24T02:44:44.663Z,90.60
2018-05-24T02:47:17.027Z,90.40
2018-05-24T02:49:48.453Z,90.40
2018-05-24T02:52:19.516Z,90.80
2018-05-24T02:54:50.830Z,90.40
2018-05-24T02:57:22.036Z,90.60
2018-05-24T02:59:53.019Z,90.70
2018-05-24T03:02:24.483Z,90.60
2018-05-24T03:04:55.599Z,90.80
2018-05-24T03:07:33.178Z,90.80
2018-05-24T03:10:08.767Z,91.00
2018-05-24T03:12:39.753Z,91.00
2018-05-24T03:15:11.225Z,91.10
2018-05-24T03:17:42.761Z,91.10
2018-05-24T03:20:13.742Z,91.00
2018-05-24T03:22:44.847Z,91.10
2018-05-24T03:25:15.745Z,91.30
2018-05-24T03:27:46.670Z,91.20
2018-05-24T03:30:18.623Z,91.30
2018-05-24T03:32:49.363Z,91.10
2018-05-24T03:35:20.357Z,91.10
2018-05-24T03:37:51.583Z,91.10
2018-05-24T03:40:23.463Z,91.10
2018-05-24T03:42:55.014Z,91.00
2018-05-24T03:45:27.884Z,91.40
2018-05-24T03:47:59.309Z,91.40
2018-05-24T03:50:30.977Z,91.60
2018-05-24T03:53:02.906Z,91.70
2018-05-24T03:55:40.115Z,91.70
2018-05-24T03:58:11.707Z,91.70
2018-05-24T04:03:59.672Z,91.80
2018-05-24T04:06:32.563Z,91.50
2018-05-24T04:09:05.170Z,91.90
2018-05-24T04:11:36.339Z,91.90
2018-05-24T04:14:07.683Z,91.90
2018-05-24T04:16:38.873Z,92.10
2018-05-24T04:19:11.131Z,92.30
2018-05-24T04:21:42.717Z,92.20
2018-05-24T04:24:13.522Z,92.40
2018-05-24T04:26:45.003Z,92.60
2018-05-24T04:29:17.602Z,92.40
2018-05-24T04:31:49.294Z,92.90
2018-05-24T04:34:20.491Z,93.00
2018-05-24T04:36:51.888Z,93.00
2018-05-24T04:39:23.407Z,93.00
2018-05-24T04:41:54.588Z,93.20
2018-05-24T04:44:26.850Z,93.10
2018-05-24T04:46:59.461Z,93.40
2018-05-24T04:49:31.957Z,93.60
2018-05-24T04:52:04.529Z,93.60
2018-05-24T04:54:36.828Z,93.70
2018-05-24T04:57:07.785Z,93.50
2018-05-24T04:59:40.185Z,93.80
2018-05-24T05:02:11.726Z,93.50
2018-05-24T05:04:42.945Z,93.70
2018-05-24T05:07:15.052Z,93.80
2018-05-24T05:09:46.890Z,93.60
2018-05-24T05:12:19.631Z,93.70
2018-05-24T05:14:52.649Z,94.00
2018-05-24T05:17:23.886Z,93.90
2018-05-24T05:19:54.646Z,94.10
2018-05-24T05:22:26.029Z,94.10
2018-05-24T05:24:56.678Z,93.80
2018-05-24T05:27:27.691Z,93.80
2018-05-24T05:29:58.839Z,93.80
2018-05-24T05:32:30.709Z,94.10
2018-05-24T05:35:02.717Z,94.10
2018-05-24T05:37:38.581Z,93.80
2018-05-24T05:40:10.810Z,93.80
2018-05-24T05:42:41.840Z,93.80
2018-05-24T05:45:13.159Z,93.90
2018-05-24T05:47:44.589Z,94.20
2018-05-24T05:50:16.026Z,94.00
2018-05-24T05:52:46.975Z,93.40
2018-05-24T05:55:18.938Z,93.50
2018-05-24T05:57:50.537Z,93.10
2018-05-24T06:00:22.270Z,93.30
2018-05-24T06:02:53.362Z,93.10
2018-05-24T06:05:24.839Z,93.10
2018-05-24T06:07:56.702Z,93.40
2018-05-24T06:10:29.245Z,93.50
2018-05-24T06:13:00.942Z,93.50
2018-05-24T06:15:33.287Z,93.50
2018-05-24T06:18:04.717Z,93.70
2018-05-24T06:20:35.636Z,93.50
2018-05-24T06:23:06.636Z,93.70
2018-05-24T06:25:37.714Z,93.60
2018-05-24T06:28:08.805Z,93.40
2018-05-24T06:30:40.898Z,93.10
2018-05-24T06:33:12.305Z,92.60
2018-05-24T06:35:44.806Z,92.90
2018-05-24T06:38:15.714Z,92.40
2018-05-24T06:40:46.916Z,92.80
2018-05-24T06:43:19.423Z,92.60
2018-05-24T06:45:50.433Z,91.70
2018-05-24T06:48:23.136Z,91.50
2018-05-24T06:50:55.013Z,91.40
2018-05-24T06:53:26.463Z,91.70
2018-05-24T06:55:57.161Z,91.70
2018-05-24T06:58:27.820Z,92.00
2018-05-24T07:00:58.837Z,91.40
2018-05-24T07:03:30.497Z,92.10
2018-05-24T07:06:02.269Z,91.80
2018-05-24T07:08:33.261Z,91.00
2018-05-24T07:11:04.336Z,91.00
2018-05-24T07:13:35.236Z,91.30
2018-05-24T07:16:06.409Z,91.60
2018-05-24T07:18:38.218Z,91.20
2018-05-24T07:21:09.158Z,91.40
2018-05-24T07:23:40.250Z,92.20
2018-05-24T07:26:11.996Z,91.50
2018-05-24T07:28:44.257Z,90.20
2018-05-24T07:31:15.778Z,90.30
2018-05-24T07:33:47.468Z,90.00
2018-05-24T07:36:20.995Z,90.80
2018-05-24T07:38:52.968Z,91.20
2018-05-24T07:41:25.923Z,91.30
2018-05-24T07:43:57.775Z,91.30
2018-05-24T07:46:31.906Z,89.00
2018-05-24T07:49:02.842Z,88.90
2018-05-24T07:51:34.260Z,90.80
2018-05-24T07:54:05.259Z,90.40
2018-05-24T07:56:35.962Z,90.70
2018-05-24T07:59:08.573Z,91.00
2018-05-24T08:01:39.744Z,91.70
2018-05-24T08:04:10.576Z,91.70
2018-05-24T08:06:42.794Z,91.60
2018-05-24T08:09:16.402Z,91.60
2018-05-24T08:11:48.007Z,91.80
2018-05-24T08:14:18.723Z,91.30
2018-05-24T08:16:49.872Z,92.00
2018-05-24T08:19:22.042Z,91.80
2018-05-24T08:21:53.553Z,91.80
2018-05-24T08:24:24.609Z,91.30
2018-05-24T08:26:56.123Z,91.50
2018-05-24T08:29:26.802Z,91.40
2018-05-24T08:31:57.992Z,90.40
2018-05-24T08:34:28.991Z,89.70
2018-05-24T08:37:00.209Z,90.60
2018-05-24T08:39:31.089Z,91.30
2018-05-24T08:42:02.617Z,91.00
2018-05-24T08:44:33.686Z,90.40
2018-05-24T08:47:04.951Z,88.60
2018-05-24T08:49:36.236Z,88.70
2018-05-24T08:52:07.921Z,89.50
2018-05-24T08:54:40.241Z,89.40
2018-05-24T08:57:11.189Z,89.50
2018-05-24T08:59:42.584Z,86.20
2018-05-24T09:02:14.522Z,89.10
2018-05-24T09:35:28.218Z,90.60
2018-05-24T09:44:23.262Z,91.70
2018-05-24T09:46:55.607Z,91.30
2018-05-24T09:49:29.493Z,91.30
2018-05-24T09:52:01.530Z,91.20
2018-05-24T09:54:32.995Z,91.10
2018-05-24T09:57:03.836Z,91.30
2018-05-24T09:59:34.268Z,91.50
2018-05-24T10:02:04.463Z,91.90
2018-05-24T10:04:35.605Z,91.30
2018-05-24T10:07:08.308Z,90.70
2018-05-24T10:09:38.672Z,90.70
2018-05-24T10:12:09.558Z,91.30
2018-05-24T10:14:40.473Z,91.30
2018-05-24T10:17:10.632Z,91.90
2018-05-24T10:19:44.158Z,91.50
2018-05-24T10:22:17.338Z,91.20
2018-05-24T10:24:48.053Z,90.60
2018-05-24T10:27:19.417Z,90.50
2018-05-24T10:29:49.753Z,90.50
2018-05-24T10:32:21.060Z,90.70
2018-05-24T10:34:53.723Z,90.70
2018-05-24T10:37:24.623Z,90.90
2018-05-24T10:39:54.928Z,90.60
2018-05-24T10:42:25.408Z,90.60
2018-05-24T10:44:56.127Z,90.90
2018-05-24T10:47:27.311Z,91.40
2018-05-24T10:49:57.446Z,91.30
2018-05-24T10:52:34.520Z,91.20
2018-05-24T10:55:04.896Z,91.60
2018-05-24T10:57:35.372Z,91.80
2018-05-24T11:00:07.580Z,92.10
2018-05-24T11:02:38.181Z,91.90
2018-05-24T11:05:09.576Z,92.20
2018-05-24T11:07:41.177Z,91.60
2018-05-24T11:10:11.450Z,91.80
2018-05-24T11:12:41.869Z,91.20
2018-05-24T11:15:12.224Z,91.50
2018-05-24T11:17:42.580Z,92.00
2018-05-24T11:20:12.950Z,91.80
2018-05-24T11:22:49.371Z,91.90
2018-05-24T11:25:19.872Z,91.70
2018-05-24T11:27:50.196Z,91.70
2018-05-24T11:30:21.048Z,92.30
2018-05-24T11:32:52.231Z,92.40
2018-05-24T11:35:22.663Z,92.50
2018-05-24T11:37:53.403Z,92.30
2018-05-24T11:40:23.671Z,92.00
2018-05-24T11:42:54.054Z,91.90
2018-05-24T11:45:24.528Z,92.50
2018-05-24T11:47:55.646Z,92.50
2018-05-24T11:50:25.967Z,92.60
2018-05-24T11:52:58.771Z,92.40
2018-05-24T11:55:29.081Z,92.90
2018-05-24T11:58:00.742Z,92.10
2018-05-24T12:00:36.638Z,92.10
2018-05-24T12:03:08.719Z,92.60
2018-05-24T12:05:38.820Z,92.80
2018-05-24T12:08:14.161Z,92.50
2018-05-24T12:10:45.120Z,92.70
2018-05-24T12:13:15.415Z,92.70
2018-05-24T12:15:48.129Z,92.20
2018-05-24T12:18:18.624Z,92.30
2018-05-24T12:20:49.056Z,92.20
2018-05-24T12:23:21.970Z,92.60
2018-05-24T12:25:54.124Z,92.30
2018-05-24T12:28:25.408Z,92.20
2018-05-24T12:30:55.928Z,92.20
2018-05-24T12:33:26.244Z,92.70
2018-05-24T12:35:56.951Z,92.80
2018-05-24T12:38:28.751Z,93.60
2018-05-24T12:40:59.880Z,93.60
2018-05-24T12:43:30.012Z,94.40
2018-05-24T12:46:01.016Z,95.00
2018-05-24T12:48:31.493Z,95.00
2018-05-24T12:51:01.858Z,96.00
2018-05-24T12:53:32.047Z,96.10
2018-05-24T12:56:02.991Z,96.40
2018-05-24T12:58:35.177Z,96.30
2018-05-24T13:01:06.957Z,97.10
2018-05-24T13:03:37.656Z,97.80
2018-05-24T13:06:07.945Z,98.00
2018-05-24T13:08:38.934Z,98.30
2018-05-24T13:11:10.939Z,99.00
2018-05-24T13:13:42.168Z,99.30
2018-05-24T13:16:14.518Z,99.90
2018-05-24T13:18:45.264Z,99.90
2018-05-24T13:21:17.647Z,99.90
2018-05-24T13:23:50.326Z,99.90
2018-05-24T13:26:20.713Z,99.90
2018-05-24T13:28:52.126Z,99.90
2018-05-24T13:31:22.757Z,99.90
2018-05-24T13:33:54.411Z,99.90
2018-05-24T13:36:28.775Z,99.90
2018-05-24T13:39:00.179Z,99.90
2018-05-24T13:41:31.237Z,99.90
2018-05-24T13:44:02.468Z,99.90
2018-05-24T13:46:33.244Z,99.90
2018-05-24T13:49:04.471Z,99.90
2018-05-24T13:51:35.561Z,99.90
2018-05-24T13:54:06.486Z,99.90
2018-05-24T13:56:37.078Z,99.90
2018-05-24T13:59:08.119Z,99.90
2018-05-24T14:01:38.633Z,99.90
2018-05-24T14:04:09.358Z,99.90
2018-05-24T14:06:39.990Z,99.90
2018-05-24T14:09:10.718Z,99.90
2018-05-24T14:11:41.003Z,99.90
2018-05-24T14:14:11.293Z,99.90
2018-05-24T14:16:42.519Z,99.90
2018-05-24T14:19:14.092Z,99.90
2018-05-24T14:21:45.088Z,99.90
2018-05-24T14:24:15.652Z,99.90
2018-05-24T14:26:47.033Z,99.90
2018-05-24T14:29:18.254Z,99.90
2018-05-24T14:31:49.228Z,99.90
2018-05-24T14:34:21.395Z,99.90
2018-05-24T14:36:53.440Z,99.90
2018-05-24T14:39:25.989Z,99.90
2018-05-24T14:41:56.396Z,99.90
2018-05-24T14:44:26.777Z,99.90
2018-05-24T14:46:57.173Z,99.90
2018-05-24T14:49:30.260Z,99.90
2018-05-24T14:52:00.950Z,99.90
2018-05-24T14:54:31.517Z,99.90
2018-05-24T14:57:02.856Z,99.90
2018-05-24T14:59:33.579Z,99.90
2018-05-24T15:02:04.091Z,99.90
2018-05-24T15:04:35.681Z,99.90
2018-05-24T15:07:06.625Z,99.90
2018-05-24T15:09:37.099Z,99.90
2018-05-24T15:12:09.232Z,99.90
2018-05-24T15:14:39.911Z,99.90
2018-05-24T15:17:10.352Z,99.90
2018-05-24T15:19:41.577Z,99.90
2018-05-24T15:22:13.143Z,99.90
2018-05-24T15:24:43.570Z,99.90
2018-05-24T15:27:14.512Z,99.90
2018-05-24T15:29:45.038Z,99.90
2018-05-24T15:32:16.633Z,99.90
2018-05-24T15:37:41.848Z,99.90
2018-05-24T15:40:18.339Z,99.90
2018-05-24T15:42:54.867Z,99.90
2018-05-24T15:45:42.327Z,99.90
2018-05-24T15:48:25.523Z,99.90
2018-05-24T15:50:57.260Z,99.90
2018-05-24T15:53:27.750Z,99.90
2018-05-24T15:55:58.498Z,99.90
2018-05-24T15:58:29.209Z,99.90
2018-05-24T16:01:01.187Z,99.90
2018-05-24T16:03:32.091Z,99.90
2018-05-24T16:06:03.036Z,99.90
2018-05-24T16:08:36.151Z,99.90
2018-05-24T16:11:07.189Z,99.90
2018-05-24T16:13:42.811Z,99.90
2018-05-24T16:16:13.839Z,99.90
2018-05-24T16:18:46.117Z,99.90
2018-05-24T16:21:17.592Z,99.90
2018-05-24T16:23:47.914Z,99.90
2018-05-24T16:26:18.684Z,99.90
2018-05-24T16:28:51.814Z,99.90
2018-05-24T16:31:22.562Z,99.90
2018-05-24T16:33:53.054Z,99.90
2018-05-24T16:36:24.969Z,99.90
2018-05-24T16:38:55.607Z,99.90
2018-05-24T16:41:27.390Z,99.90
2018-05-24T16:43:57.945Z,99.90
2018-05-24T16:46:29.149Z,99.90
2018-05-24T16:48:59.957Z,99.90
2018-05-24T16:51:32.305Z,99.90
2018-05-24T16:54:02.758Z,99.90
2018-05-24T16:56:35.471Z,99.90
2018-05-24T16:59:08.603Z,99.90
2018-05-24T17:01:40.302Z,99.90
2018-05-24T17:04:11.722Z,99.90
2018-05-24T17:06:42.814Z,99.90
2018-05-24T17:09:14.189Z,99.90
2018-05-24T17:11:45.214Z,99.90
2018-05-24T17:14:16.930Z,99.90
2018-05-24T17:16:48.900Z,99.90
2018-05-24T17:19:19.598Z,99.90
2018-05-24T17:21:54.716Z,99.90
2018-05-24T17:24:26.292Z,99.90
2018-05-24T17:26:57.058Z,99.90
2018-05-24T17:29:28.912Z,99.90
2018-05-24T17:31:59.372Z,99.90
2018-05-24T17:34:30.521Z,99.90
2018-05-24T17:37:01.092Z,99.90
2018-05-24T17:39:31.581Z,99.90
2018-05-24T17:42:02.426Z,99.90
2018-05-24T17:44:34.154Z,99.90
2018-05-24T17:47:05.602Z,99.90
2018-05-24T17:49:36.358Z,99.90
2018-05-24T17:52:07.280Z,99.90
2018-05-24T17:54:39.547Z,99.90
2018-05-24T17:57:09.949Z,99.90
2018-05-24T17:59:41.916Z,99.90
2018-05-24T18:02:15.630Z,99.90
2018-05-24T18:04:46.119Z,99.90
2018-05-24T18:07:17.165Z,99.90
2018-05-24T18:09:48.386Z,99.90
2018-05-24T18:12:19.314Z,99.90
2018-05-24T18:14:49.936Z,99.90
2018-05-24T18:17:21.562Z,99.90
2018-05-24T18:19:52.635Z,99.90
2018-05-24T18:22:23.229Z,99.90
2018-05-24T18:24:53.806Z,99.90
2018-05-24T18:27:24.731Z,99.90
2018-05-24T18:29:56.469Z,99.90
2018-05-24T18:32:26.963Z,99.90
2018-05-24T18:34:58.618Z,99.90
2018-05-24T18:37:28.931Z,99.90
2018-05-24T18:40:01.320Z,99.90
2018-05-24T18:42:32.769Z,99.90
2018-05-24T18:45:03.321Z,99.90
2018-05-24T18:47:34.609Z,99.90
2018-05-24T18:50:05.941Z,99.90
2018-05-24T18:52:37.778Z,99.90
2018-05-24T18:55:08.565Z,99.90
2018-05-24T18:57:39.240Z,99.90
2018-05-24T19:00:10.833Z,99.90
2018-05-24T19:02:42.564Z,99.90
2018-05-24T19:05:13.041Z,99.90
2018-05-24T19:07:44.145Z,99.90
2018-05-24T19:10:15.690Z,99.90
2018-05-24T19:12:46.803Z,99.90
2018-05-24T19:15:18.092Z,99.90
2018-05-24T19:17:49.417Z,99.90
2018-05-24T19:20:20.141Z,99.90
2018-05-24T19:22:51.326Z,99.90
2018-05-24T19:25:21.861Z,99.90
2018-05-24T19:27:53.376Z,99.90
2018-05-24T19:30:24.354Z,99.90
2018-05-24T19:32:55.517Z,99.90
2018-05-24T19:35:26.370Z,99.90
2018-05-24T19:37:57.423Z,99.90
2018-05-24T19:40:28.165Z,99.90
2018-05-24T19:42:58.905Z,99.90
2018-05-24T19:45:29.451Z,99.90
2018-05-24T19:48:00.969Z,99.90
2018-05-24T19:50:31.465Z,99.90
2018-05-24T19:53:02.313Z,99.90
2018-05-24T19:55:32.685Z,99.90
2018-05-24T19:58:03.661Z,99.90
2018-05-24T20:00:34.079Z,99.90
2018-05-24T20:03:04.943Z,99.90
2018-05-24T20:05:35.652Z,99.90
2018-05-24T20:08:06.262Z,99.90
2018-05-24T20:10:37.452Z,99.90
2018-05-24T20:13:09.509Z,99.90
2018-05-24T20:15:40.858Z,99.90
2018-05-24T20:18:11.603Z,99.90
2018-05-24T20:20:42.594Z,99.90
2018-05-24T20:23:13.994Z,99.90
2018-05-24T20:25:45.166Z,99.90
2018-05-24T20:28:15.742Z,99.90
2018-05-24T20:30:46.663Z,99.90
2018-05-24T20:33:19.063Z,99.90
2018-05-24T20:35:52.594Z,99.90
2018-05-24T20:38:23.953Z,99.90
2018-05-24T20:40:54.830Z,99.90
2018-05-24T20:43:25.525Z,99.90
2018-05-24T20:45:58.447Z,99.90
2018-05-24T20:48:29.406Z,99.90
2018-05-24T20:51:00.192Z,99.90
2018-05-24T20:53:30.667Z,99.90
2018-05-24T20:56:02.073Z,99.90
2018-05-24T20:58:32.615Z,99.90
2018-05-24T21:01:04.442Z,99.90
2018-05-24T21:03:35.067Z,99.90
2018-05-24T21:06:06.722Z,99.90
2018-05-24T21:08:37.521Z,99.90
2018-05-24T21:11:08.276Z,99.90
2018-05-24T21:13:38.988Z,99.90
2018-05-24T21:16:09.622Z,99.90
2018-05-24T21:18:42.279Z,99.90
2018-05-24T21:21:13.297Z,99.90
2018-05-24T21:23:44.737Z,99.90
2018-05-24T21:26:15.778Z,99.90
2018-05-24T21:28:47.114Z,99.90
2018-05-24T21:31:17.813Z,99.90
2018-05-24T21:33:48.584Z,99.90
2018-05-24T21:36:19.484Z,99.90
2018-05-24T21:38:50.060Z,99.90
2018-05-24T21:41:20.654Z,99.90
2018-05-24T21:43:51.596Z,99.90
2018-05-24T21:46:23.104Z,99.90
2018-05-24T21:48:54.804Z,99.90
2018-05-24T21:51:26.049Z,99.90
2018-05-24T21:53:56.694Z,99.90
2018-05-24T21:56:27.589Z,99.90
2018-05-24T21:58:58.376Z,99.90
2018-05-24T22:01:28.971Z,99.90
2018-05-24T22:03:59.815Z,99.90
2018-05-24T22:06:30.438Z,99.90
2018-05-24T22:09:01.308Z,99.90
2018-05-24T22:11:32.189Z,99.90
2018-05-24T22:14:02.893Z,99.90
2018-05-24T22:16:33.951Z,99.90
2018-05-24T22:19:07.618Z,99.90
2018-05-24T22:21:39.059Z,99.90
2018-05-24T22:24:09.705Z,99.90
2018-05-24T22:26:41.925Z,99.90
2018-05-24T22:29:13.077Z,99.90
2018-05-24T22:31:43.925Z,99.90
2018-05-24T22:34:14.900Z,99.90
2018-05-24T22:36:47.253Z,99.90
2018-05-24T22:39:18.009Z,99.90
2018-05-24T22:41:49.123Z,99.90
2018-05-24T22:44:19.860Z,99.90
2018-05-24T22:46:50.654Z,99.90
2018-05-24T22:49:21.212Z,99.90
2018-05-24T22:51:53.525Z,99.90
2018-05-24T22:54:25.050Z,99.90
2018-05-24T22:56:55.909Z,99.90
2018-05-24T22:59:26.639Z,99.90
2018-05-24T23:01:57.837Z,99.90
2018-05-24T23:04:28.621Z,99.90
2018-05-24T23:06:59.846Z,99.90
2018-05-24T23:09:31.886Z,99.90
2018-05-24T23:12:02.414Z,99.90
2018-05-24T23:14:33.101Z,99.90
2018-05-24T23:17:04.316Z,99.90
2018-05-24T23:19:35.209Z,99.90
2018-05-24T23:22:05.913Z,99.90
2018-05-24T23:24:36.897Z,99.90
2018-05-24T23:27:08.011Z,99.90
2018-05-24T23:29:38.725Z,99.90
2018-05-24T23:32:12.289Z,99.90
2018-05-24T23:34:43.954Z,99.90
2018-05-24T23:37:14.721Z,99.90
2018-05-24T23:39:45.533Z,99.90
2018-05-24T23:42:16.767Z,99.90
2018-05-24T23:44:47.418Z,99.90
2018-05-24T23:47:17.984Z,99.90
2018-05-24T23:49:49.041Z,99.90
2018-05-24T23:52:20.291Z,99.90
2018-05-24T23:54:51.867Z,99.90
2018-05-24T23:57:22.547Z,99.90
2018-05-24T23:59:53.714Z,99.90
